Butterworth Airport
WMKB : now visible

Airfield :











YOU CAN JOIN US ON...

 
LOGIN :

Register | Disclaimer

   EN    FR    IT 

 









Legend :    VFR   Marginal VFR   IFR   Intensive IFR   Very Intensive IFR
Visi :
Ceiling :
>= 8 km
>= 3000ft
5 to 8 km
1000 to 3000 ft
1500m to 5 km
500 to 1000 ft
800 to 1500m
200 to 500 ft
< 800m
< 200 ft
Symbols :   Thunderstorms  Fog  Heavy snow  Heavy precipitations  Wind > 20 kt






- Airport Elevation : 11 ft
- IATA code : BWH


WMKB - Butterworth

CURRENT METAR :
  • 190700Z 29005KT 230V360 9000 FEW017CB 31/25 Q1009 NOSIG

EXPIRED METARs :
  • 190600Z 24003KT 160V310 9000 FEW017CB 30/24 Q1010 NOSIG
  • 190500Z 28004KT 230V340 9000 FEW020 30/24 Q1011 NOSIG

TAF TAF WMKB
Valid from the 19 at 06:00 until the 20 at 06:00 UTC


190500Z 1906/2006 27007KT 8000 FEW020
TEMPO 1906/1910 6000 TSRA FEW017CB
TEMPO 1910/1914 6000 -RA FEW017CB
WMFC FIR / Asia



MET'MAP, your aeronautical weather chart ! - Copyright ORBIFLY December 2007 - Disclaimer

ORBIFLY MET'MAP TEAM :

Programming & Development : Alexandra Zaïnal
Concept & original design : Baudouin d'Aumeries
Assistance for programming : Marc-Olivier Méhu
Technical & hardware support : Manuel Goepfert

Contact : metmap@orbifly.com




SOURCES & CREDITS :

   NOAA       Earth
Advisory